• Join FlightAware (Why Join?)
  • Login
  • US Flag GB Flag 
11:38 EDT


 

Airport Tracker/Info


-or-


 

Live Flight TrackerFlight Track Log ✈ WWI24 ✈ 07-May-2013 ✈ KNYL - KLAS

Flight Track Log - Related Links

Times and Time Zones

All times are in EDT time to prevent confusion due to time zone crossing. See the WWI24 flight status page for this flight to view local times or setup timezone preferences in your user account.

Time Position Orientation Groundspeed Altitude Reporting Facility
EDT Latitude Longitude Course Direction KTS MPH feet Rate Location/Type
17:20 32.5950 -114.6728 351° North 231 266 5,400  Level Los Angeles Center
17:20 32.6114 -114.7367 287° West 273 314 8,200 3,840 Climbing Los Angeles Center
17:21 32.6358 -114.7453 343° North 286 329 10,100 3,720 Climbing Los Angeles Center
17:22 32.7258 -114.7444 360° North 318 366 13,600 3,540 Climbing Los Angeles Center
17:22 32.7914 -114.7492 357° North 363 418 15,900 3,480 Climbing Los Angeles Center
17:23 32.8283 -114.7469 North 359 413 17,200 3,660 Climbing Los Angeles Center
17:23 32.8964 -114.7492 358° North 381 438 19,600 3,360 Climbing Los Angeles Center
17:24 33.2551 -114.7000 North  Level FlightAware Approximate
17:24 32.9378 -114.7494 360° North 384 442 20,700  Level Los Angeles Center
17:25 33.3564 -114.7113 351° North  Level FlightAware Approximate
17:25 33.0167 -114.7525 358° North 403 464 22,700  Level Los Angeles Center
17:25 33.0744 -114.7517 North 405 466 23,000 180 Climbing Los Angeles Center
17:26 33.1928 -114.7531 359° North 421 484 23,000 1,140 Level Los Angeles Center
17:27 33.3092 -114.7561 359° North 420 483 25,400 1,440 Climbing Los Angeles Center
17:28 33.4292 -114.7575 359° North 430 495 26,000 240 Climbing Los Angeles Center
17:29 33.5483 -114.7644 357° North 430 495 26,000  Level Los Angeles Center
17:30 33.6608 -114.7903 349° North 414 476 26,000  Level Los Angeles Center
17:31 33.7947 -114.8253 348° North 410 472 26,000  Level Los Angeles Center
17:32 33.9053 -114.8542 348° North 408 470 26,000  Level Los Angeles Center
17:33 34.0161 -114.8836 348° North 408 470 26,000  Level Los Angeles Center
17:34 34.1267 -114.9117 348° North 408 470 26,000  Level Los Angeles Center
17:35 34.2403 -114.9422 347° North 417 480 26,000  Level Los Angeles Center
17:36 34.3539 -114.9725 348° North 420 483 26,000 -420 Level Los Angeles Center
17:37 34.4900 -115.0064 348° North 418 481 25,200 -960 Descending Los Angeles Center
17:38 34.5992 -115.0353 348° North 407 468 24,100 -960 Descending Los Angeles Center
17:40 34.7142 -115.0661 348° North 404 465 23,100 -1,260 Descending Los Angeles Center
17:41 34.8369 -115.1283 337° Northwest 396 456 21,000 -1,920 Descending Los Angeles Center
17:42 34.9456 -115.1994 332° Northwest 371 427 18,800 -1,860 Descending Los Angeles Center
17:43 35.0372 -115.2581 332° Northwest 362 417 17,200 -840 Descending Los Angeles Center
17:44 35.1233 -115.3144 332° Northwest 355 409 17,100 -540 Descending Los Angeles Center
17:45 35.2261 -115.3811 332° Northwest 357 411 16,100 -1,260 Descending Los Angeles Center
17:46 35.3133 -115.4383 332° Northwest 355 409 14,500 -1,500 Descending Los Angeles Center
17:47 35.4000 -115.4961 331° Northwest 355 409 13,100 -840 Descending Los Angeles Center
17:48 35.4806 -115.5492 332° Northwest 339 390 12,900 -180 Descending Los Angeles Center
17:49 35.5236 -115.5786 331° Northwest 301 346 12,900 -300 Level Los Angeles Center
17:49 35.5503 -115.5956 333° Northwest 301 346 12,600 -1,140 Descending Los Angeles Center
17:50 35.5922 -115.5961 359° North 259 298 11,800 -1,260 Descending Los Angeles Center
17:50 35.6142 -115.5783 33° Northeast 257 296 11,300 -1,560 Descending Los Angeles Center
17:51 35.6483 -115.5358 45° Northeast 260 299 10,100 -1,560 Descending Los Angeles Center
17:51 35.6653 -115.5147 45° Northeast 257 296 9,700 -1,800 Descending Los Angeles Center
17:52 35.7072 -115.4692 41° Northeast 268 308 8,300 -1,680 Descending Los Angeles Center
17:52 35.7300 -115.4442 42° Northeast 258 297 8,000 -300 Descending Los Angeles Center
17:53 35.7578 -115.4131 42° Northeast 237 273 8,000  Level Los Angeles Center
17:53 35.7800 -115.3878 43° Northeast 254 292 8,000  Level Los Angeles Center
17:54 35.8028 -115.3614 43° Northeast 237 273 8,000  Level Los Angeles Center
17:54 35.8286 -115.3339 41° Northeast 246 283 8,000 60 Level Los Angeles Center
17:55 35.8553 -115.3044 42° Northeast 256 295 8,100 -240 Climbing Los Angeles Center
17:55 35.8806 -115.2792 39° Northeast 244 281 7,800 -780 Descending Los Angeles Center
17:56 35.9033 -115.2675 23° Northeast 214 246 7,400 -900 Descending Los Angeles Center
17:56 35.9219 -115.2531 32° Northeast 228 262 6,900 -1,320 Descending Los Angeles Center
17:57 35.9550 -115.2372 21° North 203 234 6,100 -1,680 Descending Los Angeles Center
17:57 35.9836 -115.2211 24° Northeast 210 242 5,200 -1,740 Descending Los Angeles Center
17:58 36.0108 -115.2056 25° Northeast 193 222 4,200 -1,020 Descending Los Angeles Center
17:58 36.0403 -115.1892 24° Northeast 207 238 4,200 -900 Level Los Angeles Center
17:59 36.0658 -115.1753 24° Northeast 193 222 2,800 -1,380 Descending Los Angeles Center
18:02 36.0801 -115.1523 95° East  Level Estimated